createdAt,value
2023-03-06T00:04:44.087Z,85.1
2023-03-06T00:09:44.069Z,85.4
2023-03-06T00:14:44.075Z,85.9
2023-03-06T00:19:44.083Z,86.8
2023-03-06T00:24:44.071Z,86.5
2023-03-06T00:29:44.095Z,86.2
2023-03-06T00:34:44.085Z,86.5
2023-03-06T00:39:44.075Z,86.7
2023-03-06T00:44:44.073Z,86.6
2023-03-06T00:49:44.069Z,86.8
2023-03-06T00:54:44.079Z,86.4
2023-03-06T00:59:44.053Z,86.6
2023-03-06T01:04:44.074Z,86.5
2023-03-06T01:09:44.055Z,86.5
2023-03-06T01:14:44.061Z,86.4
2023-03-06T01:19:44.036Z,86.5
2023-03-06T01:24:44.041Z,87.6
2023-03-06T01:39:44.030Z,87.5
2023-03-06T01:44:44.069Z,87.3
2023-03-06T01:49:44.114Z,87.5
2023-03-06T01:54:44.065Z,87.5
2023-03-06T01:59:44.044Z,87.7
2023-03-06T02:04:44.051Z,87.9
2023-03-06T02:09:44.056Z,87.8
2023-03-06T02:14:44.067Z,88.1
2023-03-06T02:19:44.042Z,88.1
2023-03-06T02:24:49.046Z,88.1
2023-03-06T02:29:44.078Z,88.3
2023-03-06T02:34:44.129Z,88.8
2023-03-06T02:39:46.007Z,89.3
2023-03-06T02:44:44.103Z,88.9
2023-03-06T02:49:44.047Z,89.2
2023-03-06T02:54:44.021Z,89.3
2023-03-06T02:59:44.059Z,89.5
2023-03-06T03:04:44.102Z,89.5
2023-03-06T03:09:44.025Z,89.4
2023-03-06T03:14:44.061Z,88.7
2023-03-06T03:19:44.047Z,89.2
2023-03-06T03:24:44.043Z,89.6
2023-03-06T03:29:44.032Z,90.1
2023-03-06T03:34:44.055Z,90.6
2023-03-06T03:39:44.112Z,90.8
2023-03-06T03:44:44.047Z,91.1
2023-03-06T03:49:44.013Z,91.3
2023-03-06T03:54:44.022Z,91.7
2023-03-06T03:59:44.017Z,91.8
2023-03-06T04:04:44.077Z,91.9
2023-03-06T04:09:44.032Z,91.8
2023-03-06T04:14:44.050Z,92
2023-03-06T04:19:49.020Z,92.3
2023-03-06T04:24:44.003Z,92.1
2023-03-06T04:29:48.989Z,92
2023-03-06T04:34:44.041Z,92.3
2023-03-06T04:39:44.163Z,92.4
2023-03-06T04:44:44.003Z,92.2
2023-03-06T04:54:44.009Z,91.9
2023-03-06T04:59:43.999Z,92.1
2023-03-06T05:04:44.006Z,92
2023-03-06T05:09:49.039Z,91.7
2023-03-06T05:14:44.603Z,91.2
2023-03-06T05:19:44.162Z,90.7
2023-03-06T05:24:43.983Z,90.1
2023-03-06T05:29:44.026Z,89.2
2023-03-06T05:34:45.258Z,88.8
2023-03-06T05:39:44.090Z,88.8
2023-03-06T05:44:44.042Z,89.3
2023-03-06T05:49:43.966Z,89.4
2023-03-06T05:54:43.965Z,89.1
2023-03-06T05:59:46.251Z,89.1
2023-03-06T06:04:43.998Z,89.1
2023-03-06T06:09:44.000Z,88.8
2023-03-06T06:14:48.967Z,88.9
2023-03-06T06:19:43.981Z,88.4
2023-03-06T06:24:43.997Z,88.5
2023-03-06T06:29:43.969Z,88.2
2023-03-06T06:39:44.063Z,86.4
2023-03-06T06:44:44.026Z,85.9
2023-03-06T06:49:43.988Z,85.6
2023-03-06T06:54:43.969Z,85.1
2023-03-06T06:59:44.018Z,84.7
2023-03-06T07:04:56.433Z,84.4
2023-03-06T07:09:44.090Z,83.7
2023-03-06T07:14:43.923Z,82.2
2023-03-06T07:19:43.924Z,81.5
2023-03-06T07:24:43.958Z,81.6
2023-03-06T07:29:43.997Z,78.6
2023-03-06T07:34:43.989Z,78.6
2023-03-06T07:39:43.962Z,77.1
2023-03-06T07:44:43.968Z,77
2023-03-06T07:49:48.968Z,75.5
2023-03-06T07:54:43.912Z,74.4
2023-03-06T08:04:43.950Z,72.8
2023-03-06T08:09:44.060Z,72.7
2023-03-06T08:14:43.903Z,72.7
2023-03-06T08:19:43.921Z,71.6
2023-03-06T08:24:43.891Z,69.9
2023-03-06T08:29:48.894Z,69.3
2023-03-06T08:34:43.922Z,69.2
2023-03-06T08:39:43.919Z,69.2
2023-03-06T08:49:43.866Z,67.9
2023-03-06T08:54:43.880Z,69.6
2023-03-06T09:04:43.945Z,68.2
2023-03-06T09:09:43.896Z,68.1
2023-03-06T09:14:43.843Z,67.7
2023-03-06T09:29:43.879Z,68.7
2023-03-06T09:34:43.855Z,69
2023-03-06T09:39:44.939Z,68.2
2023-03-06T09:44:43.872Z,67
2023-03-06T09:49:43.882Z,65.2
2023-03-06T09:54:43.929Z,65.7
2023-03-06T09:59:43.852Z,65.7
2023-03-06T10:04:43.865Z,63.6
2023-03-06T10:09:43.836Z,64
2023-03-06T10:14:49.397Z,64.1
2023-03-06T10:19:43.861Z,64.1
2023-03-06T10:24:43.821Z,61.7
2023-03-06T10:29:53.056Z,61.3
2023-03-06T10:34:43.891Z,61
2023-03-06T10:39:43.805Z,61
2023-03-06T10:44:43.860Z,61.1
2023-03-06T10:49:43.817Z,61.1
2023-03-06T10:54:43.782Z,61.3
2023-03-06T10:59:43.803Z,61.7
2023-03-06T11:04:43.876Z,62.5
2023-03-06T11:09:43.811Z,62.3
2023-03-06T11:14:43.810Z,63.1
2023-03-06T11:24:43.807Z,61.6
2023-03-06T11:29:43.794Z,61.8
2023-03-06T11:34:43.802Z,62
2023-03-06T11:39:43.796Z,61.9
2023-03-06T11:44:43.779Z,62
2023-03-06T11:49:43.746Z,61.6
2023-03-06T11:54:43.745Z,61.1
2023-03-06T11:59:43.759Z,62
2023-03-06T12:04:43.789Z,62.2
2023-03-06T12:09:43.745Z,61.8
2023-03-06T12:14:48.751Z,62.5
2023-03-06T12:19:43.805Z,63.7
2023-03-06T12:24:43.706Z,65
2023-03-06T12:39:43.790Z,68.2
2023-03-06T12:44:43.711Z,68.5
2023-03-06T12:49:43.712Z,68.6
2023-03-06T12:54:43.697Z,67.8
2023-03-06T12:59:43.797Z,68
2023-03-06T13:04:48.681Z,68.2
2023-03-06T13:09:43.763Z,68.6
2023-03-06T13:14:52.554Z,68.7
2023-03-06T13:19:43.695Z,68.9
2023-03-06T13:24:43.678Z,67.9
2023-03-06T13:29:48.700Z,67.3
2023-03-06T13:34:43.754Z,66.6
2023-03-06T13:39:43.686Z,66.8
2023-03-06T13:44:43.705Z,67.7
2023-03-06T13:49:43.928Z,68.2
2023-03-06T13:54:43.657Z,68.6
2023-03-06T13:59:43.669Z,68.3
2023-03-06T14:04:43.708Z,68.3
2023-03-06T14:09:48.687Z,67.9
2023-03-06T14:14:43.633Z,68
2023-03-06T14:19:43.642Z,67.9
2023-03-06T14:24:43.649Z,68
2023-03-06T14:29:43.628Z,68.6
2023-03-06T14:34:43.661Z,68.4
2023-03-06T14:39:43.668Z,69
2023-03-06T14:44:43.728Z,69.1
2023-03-06T14:49:43.606Z,69.4
2023-03-06T14:54:43.602Z,69.1
2023-03-06T14:59:43.624Z,69.6
2023-03-06T15:04:43.638Z,69.7
2023-03-06T15:09:43.651Z,70.1
2023-03-06T15:14:43.589Z,70
2023-03-06T15:19:43.602Z,70.2
2023-03-06T15:24:48.567Z,70.4
2023-03-06T15:29:43.659Z,70.5
2023-03-06T15:34:43.686Z,70.5
2023-03-06T15:39:43.704Z,70
2023-03-06T15:44:43.628Z,69.8
2023-03-06T15:54:43.564Z,69.8
2023-03-06T15:59:43.614Z,70
2023-03-06T16:09:43.632Z,70.2
2023-03-06T16:14:43.568Z,70.9
2023-03-06T16:19:46.960Z,71
2023-03-06T16:24:43.560Z,71
2023-03-06T16:39:43.533Z,71.9
2023-03-06T16:44:48.570Z,72.8
2023-03-06T16:49:43.637Z,73
2023-03-06T16:54:44.639Z,73
2023-03-06T16:59:43.538Z,73.5
2023-03-06T17:04:48.548Z,74.1
2023-03-06T17:09:43.992Z,74.6
2023-03-06T17:14:43.526Z,74.9
2023-03-06T17:19:43.511Z,74.9
2023-03-06T17:24:43.591Z,75.4
2023-03-06T17:29:43.542Z,75.5
2023-03-06T17:34:43.502Z,75.8
2023-03-06T17:39:43.549Z,75.8
2023-03-06T17:44:43.592Z,75.8
2023-03-06T17:49:43.511Z,76.1
2023-03-06T17:54:43.513Z,77.4
2023-03-06T17:59:43.492Z,78.4
2023-03-06T18:04:48.566Z,79.1
2023-03-06T18:09:43.507Z,79.3
2023-03-06T18:14:43.504Z,79.6
2023-03-06T18:19:43.554Z,80.4
2023-03-06T18:24:48.585Z,80.8
2023-03-06T18:29:48.461Z,81.1
2023-03-06T18:34:43.465Z,81.1
2023-03-06T18:39:43.813Z,81.3
2023-03-06T18:44:43.515Z,81.4
2023-03-06T18:49:44.297Z,81.9
2023-03-06T18:54:43.524Z,82.2
2023-03-06T18:59:43.508Z,82.7
2023-03-06T19:04:43.488Z,82.8
2023-03-06T19:09:43.470Z,82.8
2023-03-06T19:14:48.467Z,83.3
2023-03-06T19:19:43.489Z,83.6
2023-03-06T19:24:43.481Z,84.5
2023-03-06T19:29:43.558Z,84.6
2023-03-06T19:34:43.518Z,84.9
2023-03-06T19:39:43.462Z,85.4
2023-03-06T19:44:43.498Z,85.7
2023-03-06T19:49:43.434Z,85.8
2023-03-06T19:54:43.441Z,86
2023-03-06T19:59:43.712Z,85.9
2023-03-06T20:04:43.968Z,86
2023-03-06T20:09:43.524Z,86.5
2023-03-06T20:14:43.481Z,86.4
2023-03-06T20:19:43.536Z,86.3
2023-03-06T20:24:43.539Z,86.4
2023-03-06T20:29:43.443Z,86.7
2023-03-06T20:34:43.626Z,86.3
2023-03-06T20:39:43.447Z,86.3
2023-03-06T20:44:48.411Z,86.4
2023-03-06T20:49:43.444Z,86.8
2023-03-06T20:54:43.442Z,87.4
2023-03-06T20:59:43.402Z,86
2023-03-06T21:04:43.535Z,86.2
2023-03-06T21:09:43.448Z,85.7
2023-03-06T21:14:43.439Z,85.3
2023-03-06T21:19:43.486Z,85.3
2023-03-06T21:24:43.477Z,85
2023-03-06T21:29:43.860Z,84.8
2023-03-06T21:34:43.680Z,84.6
2023-03-06T21:39:43.471Z,84.4
2023-03-06T21:44:44.431Z,84.4
2023-03-06T21:49:43.583Z,84.6
2023-03-06T21:54:43.977Z,84.5
2023-03-06T21:59:43.384Z,84.2
2023-03-06T22:04:43.495Z,83.9
2023-03-06T22:09:43.523Z,83.6
2023-03-06T22:14:43.429Z,83.2
2023-03-06T22:19:43.735Z,83.3
2023-03-06T22:24:43.399Z,83.3
2023-03-06T22:29:43.395Z,83.1
2023-03-06T22:34:43.450Z,82.7
2023-03-06T22:39:43.423Z,82.6
2023-03-06T22:44:48.389Z,82.7
2023-03-06T22:49:43.421Z,82.5
2023-03-06T22:59:43.817Z,82.8
2023-03-06T23:19:43.347Z,82.7
2023-03-06T23:24:43.386Z,82.6
2023-03-06T23:29:43.344Z,82.9
2023-03-06T23:39:43.327Z,82.8
2023-03-06T23:59:43.379Z,82.1
